sensor_id;sensor_type;location;lat;lon;timestamp;P1;durP1;ratioP1;P2;durP2;ratioP2
11496;SDS011;5805;51.542;7.230;2024-01-25T00:02:19;28.70;;;5.90;;
11496;SDS011;5805;51.542;7.230;2024-01-25T00:04:45;32.63;;;4.97;;
11496;SDS011;5805;51.542;7.230;2024-01-25T00:07:11;23.35;;;5.40;;
11496;SDS011;5805;51.542;7.230;2024-01-25T00:09:36;22.88;;;6.47;;
11496;SDS011;5805;51.542;7.230;2024-01-25T00:12:04;18.42;;;4.80;;
11496;SDS011;5805;51.542;7.230;2024-01-25T00:14:31;17.77;;;5.70;;
11496;SDS011;5805;51.542;7.230;2024-01-25T00:16:57;23.88;;;5.63;;
11496;SDS011;5805;51.542;7.230;2024-01-25T00:19:23;28.08;;;5.82;;
11496;SDS011;5805;51.542;7.230;2024-01-25T00:21:50;18.60;;;5.45;;
11496;SDS011;5805;51.542;7.230;2024-01-25T00:24:16;25.85;;;5.03;;
11496;SDS011;5805;51.542;7.230;2024-01-25T00:26:43;23.70;;;5.43;;
11496;SDS011;5805;51.542;7.230;2024-01-25T00:29:11;22.70;;;5.45;;
11496;SDS011;5805;51.542;7.230;2024-01-25T00:31:40;19.33;;;5.65;;
11496;SDS011;5805;51.542;7.230;2024-01-25T00:34:05;21.27;;;5.53;;
11496;SDS011;5805;51.542;7.230;2024-01-25T00:36:32;20.95;;;4.82;;
11496;SDS011;5805;51.542;7.230;2024-01-25T00:38:58;17.20;;;4.90;;
11496;SDS011;5805;51.542;7.230;2024-01-25T00:41:25;25.52;;;5.50;;
11496;SDS011;5805;51.542;7.230;2024-01-25T00:43:56;19.80;;;4.35;;
11496;SDS011;5805;51.542;7.230;2024-01-25T00:46:23;21.83;;;6.60;;
11496;SDS011;5805;51.542;7.230;2024-01-25T00:48:50;20.88;;;5.45;;
11496;SDS011;5805;51.542;7.230;2024-01-25T00:51:18;27.15;;;6.00;;
11496;SDS011;5805;51.542;7.230;2024-01-25T00:53:47;18.20;;;4.55;;
11496;SDS011;5805;51.542;7.230;2024-01-25T00:56:13;23.00;;;5.82;;
11496;SDS011;5805;51.542;7.230;2024-01-25T00:58:39;20.88;;;4.78;;
11496;SDS011;5805;51.542;7.230;2024-01-25T01:01:06;18.63;;;4.97;;
11496;SDS011;5805;51.542;7.230;2024-01-25T01:03:32;22.70;;;5.97;;
11496;SDS011;5805;51.542;7.230;2024-01-25T01:06:01;19.85;;;5.38;;
11496;SDS011;5805;51.542;7.230;2024-01-25T01:08:27;18.40;;;5.15;;
11496;SDS011;5805;51.542;7.230;2024-01-25T01:10:53;10.98;;;4.78;;
11496;SDS011;5805;51.542;7.230;2024-01-25T01:13:19;21.75;;;4.95;;
11496;SDS011;5805;51.542;7.230;2024-01-25T01:15:45;19.83;;;4.85;;
11496;SDS011;5805;51.542;7.230;2024-01-25T01:18:12;21.58;;;5.55;;
11496;SDS011;5805;51.542;7.230;2024-01-25T01:20:37;23.20;;;5.70;;
11496;SDS011;5805;51.542;7.230;2024-01-25T01:23:05;17.60;;;5.68;;
11496;SDS011;5805;51.542;7.230;2024-01-25T01:25:31;22.88;;;5.22;;
11496;SDS011;5805;51.542;7.230;2024-01-25T01:27:57;21.63;;;5.90;;
11496;SDS011;5805;51.542;7.230;2024-01-25T01:30:25;27.73;;;5.68;;
11496;SDS011;5805;51.542;7.230;2024-01-25T01:32:50;22.35;;;5.70;;
11496;SDS011;5805;51.542;7.230;2024-01-25T01:35:17;22.00;;;5.05;;
11496;SDS011;5805;51.542;7.230;2024-01-25T01:37:42;20.73;;;5.53;;
11496;SDS011;5805;51.542;7.230;2024-01-25T01:40:11;30.10;;;5.57;;
11496;SDS011;5805;51.542;7.230;2024-01-25T01:42:37;26.55;;;5.85;;
11496;SDS011;5805;51.542;7.230;2024-01-25T01:45:03;23.02;;;4.75;;
11496;SDS011;5805;51.542;7.230;2024-01-25T01:47:29;20.80;;;5.05;;
11496;SDS011;5805;51.542;7.230;2024-01-25T01:49:58;22.15;;;6.13;;
11496;SDS011;5805;51.542;7.230;2024-01-25T01:52:25;26.88;;;5.90;;
11496;SDS011;5805;51.542;7.230;2024-01-25T01:54:51;19.67;;;5.20;;
11496;SDS011;5805;51.542;7.230;2024-01-25T01:57:18;22.02;;;4.97;;
11496;SDS011;5805;51.542;7.230;2024-01-25T01:59:45;23.88;;;5.90;;
11496;SDS011;5805;51.542;7.230;2024-01-25T02:02:12;24.17;;;5.25;;
11496;SDS011;5805;51.542;7.230;2024-01-25T02:04:38;24.42;;;6.72;;
11496;SDS011;5805;51.542;7.230;2024-01-25T02:07:04;19.90;;;5.32;;
11496;SDS011;5805;51.542;7.230;2024-01-25T02:09:31;20.85;;;5.32;;
11496;SDS011;5805;51.542;7.230;2024-01-25T02:12:01;23.77;;;5.63;;
11496;SDS011;5805;51.542;7.230;2024-01-25T02:14:28;20.35;;;4.18;;
11496;SDS011;5805;51.542;7.230;2024-01-25T02:16:55;18.70;;;4.63;;
11496;SDS011;5805;51.542;7.230;2024-01-25T02:19:21;26.98;;;5.78;;
11496;SDS011;5805;51.542;7.230;2024-01-25T02:21:47;17.45;;;4.60;;
11496;SDS011;5805;51.542;7.230;2024-01-25T02:24:16;19.08;;;4.93;;
11496;SDS011;5805;51.542;7.230;2024-01-25T02:26:41;23.13;;;5.22;;
11496;SDS011;5805;51.542;7.230;2024-01-25T02:29:09;18.17;;;4.95;;
11496;SDS011;5805;51.542;7.230;2024-01-25T02:31:36;16.05;;;4.65;;
11496;SDS011;5805;51.542;7.230;2024-01-25T02:34:02;26.67;;;5.25;;
11496;SDS011;5805;51.542;7.230;2024-01-25T02:36:28;19.77;;;4.88;;
11496;SDS011;5805;51.542;7.230;2024-01-25T02:38:54;26.17;;;6.22;;
11496;SDS011;5805;51.542;7.230;2024-01-25T02:41:21;20.45;;;4.57;;
11496;SDS011;5805;51.542;7.230;2024-01-25T02:43:47;16.73;;;4.00;;
11496;SDS011;5805;51.542;7.230;2024-01-25T02:46:13;19.25;;;4.43;;
11496;SDS011;5805;51.542;7.230;2024-01-25T02:48:39;22.75;;;5.55;;
11496;SDS011;5805;51.542;7.230;2024-01-25T02:51:05;22.33;;;5.05;;
11496;SDS011;5805;51.542;7.230;2024-01-25T02:53:31;13.95;;;4.15;;
11496;SDS011;5805;51.542;7.230;2024-01-25T02:55:57;15.20;;;4.38;;
11496;SDS011;5805;51.542;7.230;2024-01-25T02:58:24;23.20;;;4.82;;
11496;SDS011;5805;51.542;7.230;2024-01-25T03:00:50;14.75;;;4.75;;
11496;SDS011;5805;51.542;7.230;2024-01-25T03:03:16;19.02;;;4.82;;
11496;SDS011;5805;51.542;7.230;2024-01-25T03:05:41;15.43;;;4.90;;
11496;SDS011;5805;51.542;7.230;2024-01-25T03:08:07;21.42;;;5.60;;
11496;SDS011;5805;51.542;7.230;2024-01-25T03:10:33;20.85;;;5.45;;
11496;SDS011;5805;51.542;7.230;2024-01-25T03:12:58;18.92;;;5.00;;
11496;SDS011;5805;51.542;7.230;2024-01-25T03:15:26;22.35;;;4.75;;
11496;SDS011;5805;51.542;7.230;2024-01-25T03:17:51;18.02;;;4.90;;
11496;SDS011;5805;51.542;7.230;2024-01-25T03:20:17;20.58;;;5.78;;
11496;SDS011;5805;51.542;7.230;2024-01-25T03:22:43;18.73;;;4.03;;
11496;SDS011;5805;51.542;7.230;2024-01-25T03:25:09;20.02;;;5.32;;
11496;SDS011;5805;51.542;7.230;2024-01-25T03:27:35;18.90;;;5.30;;
11496;SDS011;5805;51.542;7.230;2024-01-25T03:30:01;19.30;;;5.57;;
11496;SDS011;5805;51.542;7.230;2024-01-25T03:32:29;21.85;;;5.68;;
11496;SDS011;5805;51.542;7.230;2024-01-25T03:34:55;18.55;;;4.72;;
11496;SDS011;5805;51.542;7.230;2024-01-25T03:37:20;19.58;;;4.95;;
11496;SDS011;5805;51.542;7.230;2024-01-25T03:39:47;18.38;;;5.13;;
11496;SDS011;5805;51.542;7.230;2024-01-25T03:42:13;21.25;;;5.47;;
11496;SDS011;5805;51.542;7.230;2024-01-25T03:44:39;22.08;;;5.80;;
11496;SDS011;5805;51.542;7.230;2024-01-25T03:47:05;23.55;;;5.70;;
11496;SDS011;5805;51.542;7.230;2024-01-25T03:49:32;21.42;;;4.95;;
11496;SDS011;5805;51.542;7.230;2024-01-25T03:51:58;19.55;;;5.00;;
11496;SDS011;5805;51.542;7.230;2024-01-25T03:54:24;18.75;;;4.55;;
11496;SDS011;5805;51.542;7.230;2024-01-25T03:56:50;17.77;;;5.20;;
11496;SDS011;5805;51.542;7.230;2024-01-25T03:59:16;19.52;;;6.00;;
11496;SDS011;5805;51.542;7.230;2024-01-25T04:01:42;18.48;;;5.65;;
11496;SDS011;5805;51.542;7.230;2024-01-25T04:04:10;22.38;;;5.35;;
11496;SDS011;5805;51.542;7.230;2024-01-25T04:06:40;20.17;;;5.43;;
11496;SDS011;5805;51.542;7.230;2024-01-25T04:09:06;17.95;;;5.22;;
11496;SDS011;5805;51.542;7.230;2024-01-25T04:11:33;24.08;;;6.43;;
11496;SDS011;5805;51.542;7.230;2024-01-25T04:14:02;19.60;;;5.60;;
11496;SDS011;5805;51.542;7.230;2024-01-25T04:16:27;15.00;;;4.32;;
11496;SDS011;5805;51.542;7.230;2024-01-25T04:18:55;20.75;;;5.28;;
11496;SDS011;5805;51.542;7.230;2024-01-25T04:21:21;18.55;;;5.22;;
11496;SDS011;5805;51.542;7.230;2024-01-25T04:23:48;27.02;;;5.63;;
11496;SDS011;5805;51.542;7.230;2024-01-25T04:26:14;19.02;;;5.30;;
11496;SDS011;5805;51.542;7.230;2024-01-25T04:28:40;18.85;;;4.88;;
11496;SDS011;5805;51.542;7.230;2024-01-25T04:31:06;25.17;;;4.95;;
11496;SDS011;5805;51.542;7.230;2024-01-25T04:33:31;22.98;;;6.15;;
11496;SDS011;5805;51.542;7.230;2024-01-25T04:35:58;18.35;;;5.72;;
11496;SDS011;5805;51.542;7.230;2024-01-25T04:38:24;19.65;;;5.18;;
11496;SDS011;5805;51.542;7.230;2024-01-25T04:40:52;15.93;;;4.05;;
11496;SDS011;5805;51.542;7.230;2024-01-25T04:43:17;22.77;;;5.47;;
11496;SDS011;5805;51.542;7.230;2024-01-25T04:45:43;21.27;;;4.57;;
11496;SDS011;5805;51.542;7.230;2024-01-25T04:48:10;17.08;;;4.88;;
11496;SDS011;5805;51.542;7.230;2024-01-25T04:50:35;18.00;;;5.15;;
11496;SDS011;5805;51.542;7.230;2024-01-25T04:53:01;16.92;;;4.35;;
11496;SDS011;5805;51.542;7.230;2024-01-25T04:55:27;18.08;;;5.10;;
11496;SDS011;5805;51.542;7.230;2024-01-25T04:57:54;21.05;;;4.80;;
11496;SDS011;5805;51.542;7.230;2024-01-25T05:00:20;16.02;;;4.75;;
11496;SDS011;5805;51.542;7.230;2024-01-25T05:02:46;17.80;;;4.32;;
11496;SDS011;5805;51.542;7.230;2024-01-25T05:05:12;14.48;;;4.28;;
11496;SDS011;5805;51.542;7.230;2024-01-25T05:07:38;22.40;;;4.53;;
11496;SDS011;5805;51.542;7.230;2024-01-25T05:10:04;22.17;;;4.90;;
11496;SDS011;5805;51.542;7.230;2024-01-25T05:12:31;23.88;;;5.18;;
11496;SDS011;5805;51.542;7.230;2024-01-25T05:14:58;21.70;;;5.47;;
11496;SDS011;5805;51.542;7.230;2024-01-25T05:17:24;16.10;;;4.25;;
11496;SDS011;5805;51.542;7.230;2024-01-25T05:19:49;18.67;;;4.22;;
11496;SDS011;5805;51.542;7.230;2024-01-25T05:22:15;22.27;;;3.67;;
11496;SDS011;5805;51.542;7.230;2024-01-25T05:24:42;19.50;;;5.22;;
11496;SDS011;5805;51.542;7.230;2024-01-25T05:27:08;18.40;;;4.75;;
11496;SDS011;5805;51.542;7.230;2024-01-25T05:29:34;22.88;;;4.47;;
11496;SDS011;5805;51.542;7.230;2024-01-25T05:32:01;23.33;;;4.50;;
11496;SDS011;5805;51.542;7.230;2024-01-25T05:34:28;19.75;;;4.90;;
11496;SDS011;5805;51.542;7.230;2024-01-25T05:36:54;21.17;;;4.85;;
11496;SDS011;5805;51.542;7.230;2024-01-25T05:39:20;14.95;;;4.05;;
11496;SDS011;5805;51.542;7.230;2024-01-25T05:41:46;19.08;;;4.45;;
11496;SDS011;5805;51.542;7.230;2024-01-25T05:44:12;24.67;;;4.53;;
11496;SDS011;5805;51.542;7.230;2024-01-25T05:46:38;14.77;;;4.07;;
11496;SDS011;5805;51.542;7.230;2024-01-25T05:49:05;18.77;;;4.63;;
11496;SDS011;5805;51.542;7.230;2024-01-25T05:51:31;17.38;;;4.72;;
11496;SDS011;5805;51.542;7.230;2024-01-25T05:53:56;22.40;;;4.50;;
11496;SDS011;5805;51.542;7.230;2024-01-25T05:56:22;23.35;;;4.32;;
11496;SDS011;5805;51.542;7.230;2024-01-25T05:58:48;21.67;;;4.65;;
11496;SDS011;5805;51.542;7.230;2024-01-25T06:01:14;18.35;;;4.18;;
11496;SDS011;5805;51.542;7.230;2024-01-25T06:03:40;19.00;;;4.68;;
11496;SDS011;5805;51.542;7.230;2024-01-25T06:06:07;16.42;;;3.92;;
11496;SDS011;5805;51.542;7.230;2024-01-25T06:08:33;24.65;;;4.25;;
11496;SDS011;5805;51.542;7.230;2024-01-25T06:10:59;17.98;;;4.35;;
11496;SDS011;5805;51.542;7.230;2024-01-25T06:13:25;14.23;;;4.25;;
11496;SDS011;5805;51.542;7.230;2024-01-25T06:15:51;24.15;;;5.38;;
11496;SDS011;5805;51.542;7.230;2024-01-25T06:18:16;14.27;;;4.38;;
11496;SDS011;5805;51.542;7.230;2024-01-25T06:20:42;22.42;;;5.13;;
11496;SDS011;5805;51.542;7.230;2024-01-25T06:23:09;17.23;;;4.63;;
11496;SDS011;5805;51.542;7.230;2024-01-25T06:25:36;17.55;;;4.78;;
11496;SDS011;5805;51.542;7.230;2024-01-25T06:28:02;20.95;;;4.93;;
11496;SDS011;5805;51.542;7.230;2024-01-25T06:30:28;18.50;;;4.88;;
11496;SDS011;5805;51.542;7.230;2024-01-25T06:32:56;19.08;;;4.32;;
11496;SDS011;5805;51.542;7.230;2024-01-25T06:35:21;19.80;;;3.90;;
11496;SDS011;5805;51.542;7.230;2024-01-25T06:37:48;25.77;;;5.03;;
11496;SDS011;5805;51.542;7.230;2024-01-25T06:40:17;14.80;;;4.65;;
11496;SDS011;5805;51.542;7.230;2024-01-25T06:42:43;16.90;;;4.13;;
11496;SDS011;5805;51.542;7.230;2024-01-25T06:45:08;19.50;;;4.72;;
11496;SDS011;5805;51.542;7.230;2024-01-25T06:47:34;18.98;;;4.85;;
11496;SDS011;5805;51.542;7.230;2024-01-25T06:50:01;21.27;;;4.97;;
11496;SDS011;5805;51.542;7.230;2024-01-25T06:52:27;15.68;;;4.10;;
11496;SDS011;5805;51.542;7.230;2024-01-25T06:54:53;25.58;;;4.88;;
11496;SDS011;5805;51.542;7.230;2024-01-25T06:57:20;17.92;;;4.80;;
11496;SDS011;5805;51.542;7.230;2024-01-25T06:59:46;22.70;;;5.70;;
11496;SDS011;5805;51.542;7.230;2024-01-25T07:02:11;26.95;;;5.45;;
11496;SDS011;5805;51.542;7.230;2024-01-25T07:04:37;18.25;;;4.53;;
11496;SDS011;5805;51.542;7.230;2024-01-25T07:07:03;24.80;;;5.13;;
11496;SDS011;5805;51.542;7.230;2024-01-25T07:09:28;12.52;;;4.03;;
11496;SDS011;5805;51.542;7.230;2024-01-25T07:11:54;14.65;;;4.68;;
11496;SDS011;5805;51.542;7.230;2024-01-25T07:14:21;24.27;;;5.35;;
11496;SDS011;5805;51.542;7.230;2024-01-25T07:16:48;18.63;;;5.10;;
11496;SDS011;5805;51.542;7.230;2024-01-25T07:19:13;15.20;;;4.13;;
11496;SDS011;5805;51.542;7.230;2024-01-25T07:21:39;16.13;;;4.25;;
11496;SDS011;5805;51.542;7.230;2024-01-25T07:24:05;18.27;;;4.97;;
11496;SDS011;5805;51.542;7.230;2024-01-25T07:26:31;20.90;;;5.05;;
11496;SDS011;5805;51.542;7.230;2024-01-25T07:28:56;21.13;;;4.63;;
11496;SDS011;5805;51.542;7.230;2024-01-25T07:31:23;19.13;;;4.95;;
11496;SDS011;5805;51.542;7.230;2024-01-25T07:33:49;19.45;;;4.38;;
11496;SDS011;5805;51.542;7.230;2024-01-25T07:36:15;22.13;;;5.47;;
11496;SDS011;5805;51.542;7.230;2024-01-25T07:38:41;16.05;;;4.55;;
11496;SDS011;5805;51.542;7.230;2024-01-25T07:41:08;21.63;;;5.85;;
11496;SDS011;5805;51.542;7.230;2024-01-25T07:43:33;19.35;;;4.65;;
11496;SDS011;5805;51.542;7.230;2024-01-25T07:46:00;17.40;;;5.30;;
11496;SDS011;5805;51.542;7.230;2024-01-25T07:48:28;17.63;;;4.82;;
11496;SDS011;5805;51.542;7.230;2024-01-25T07:50:53;17.25;;;4.90;;
11496;SDS011;5805;51.542;7.230;2024-01-25T07:53:19;20.63;;;5.60;;
11496;SDS011;5805;51.542;7.230;2024-01-25T07:55:45;19.38;;;5.03;;
11496;SDS011;5805;51.542;7.230;2024-01-25T07:58:10;18.88;;;5.07;;
11496;SDS011;5805;51.542;7.230;2024-01-25T08:00:36;23.98;;;5.80;;
11496;SDS011;5805;51.542;7.230;2024-01-25T08:03:02;22.23;;;6.75;;
11496;SDS011;5805;51.542;7.230;2024-01-25T08:05:30;18.00;;;5.10;;
11496;SDS011;5805;51.542;7.230;2024-01-25T08:07:55;21.17;;;5.82;;
11496;SDS011;5805;51.542;7.230;2024-01-25T08:10:21;19.85;;;6.20;;
11496;SDS011;5805;51.542;7.230;2024-01-25T08:12:47;19.10;;;5.40;;
11496;SDS011;5805;51.542;7.230;2024-01-25T08:15:13;33.35;;;6.82;;
11496;SDS011;5805;51.542;7.230;2024-01-25T08:17:38;24.73;;;5.90;;
11496;SDS011;5805;51.542;7.230;2024-01-25T08:20:05;17.15;;;5.35;;
11496;SDS011;5805;51.542;7.230;2024-01-25T08:22:32;19.38;;;5.60;;
11496;SDS011;5805;51.542;7.230;2024-01-25T08:24:58;20.52;;;6.18;;
11496;SDS011;5805;51.542;7.230;2024-01-25T08:27:24;20.73;;;5.47;;
11496;SDS011;5805;51.542;7.230;2024-01-25T08:29:50;25.00;;;5.20;;
11496;SDS011;5805;51.542;7.230;2024-01-25T08:32:15;22.25;;;5.85;;
11496;SDS011;5805;51.542;7.230;2024-01-25T08:34:41;25.60;;;5.45;;
11496;SDS011;5805;51.542;7.230;2024-01-25T08:37:07;22.40;;;4.78;;
11496;SDS011;5805;51.542;7.230;2024-01-25T08:39:34;22.23;;;5.28;;
11496;SDS011;5805;51.542;7.230;2024-01-25T08:42:00;20.45;;;5.65;;
11496;SDS011;5805;51.542;7.230;2024-01-25T08:44:26;22.10;;;5.50;;
11496;SDS011;5805;51.542;7.230;2024-01-25T08:46:51;15.55;;;5.22;;
11496;SDS011;5805;51.542;7.230;2024-01-25T08:49:17;24.05;;;5.47;;
11496;SDS011;5805;51.542;7.230;2024-01-25T08:51:43;21.80;;;5.10;;
11496;SDS011;5805;51.542;7.230;2024-01-25T08:54:08;13.60;;;4.53;;
11496;SDS011;5805;51.542;7.230;2024-01-25T08:56:36;24.50;;;5.38;;
11496;SDS011;5805;51.542;7.230;2024-01-25T08:59:01;17.15;;;5.00;;
11496;SDS011;5805;51.542;7.230;2024-01-25T09:01:27;21.90;;;6.03;;
11496;SDS011;5805;51.542;7.230;2024-01-25T09:03:53;27.20;;;6.03;;
11496;SDS011;5805;51.542;7.230;2024-01-25T09:06:18;19.65;;;5.72;;
11496;SDS011;5805;51.542;7.230;2024-01-25T09:08:44;21.10;;;6.03;;
11496;SDS011;5805;51.542;7.230;2024-01-25T09:11:10;22.30;;;5.60;;
11496;SDS011;5805;51.542;7.230;2024-01-25T09:13:37;20.75;;;6.10;;
11496;SDS011;5805;51.542;7.230;2024-01-25T09:16:03;25.35;;;6.00;;
11496;SDS011;5805;51.542;7.230;2024-01-25T09:18:29;22.17;;;5.20;;
11496;SDS011;5805;51.542;7.230;2024-01-25T09:20:54;23.27;;;7.18;;
11496;SDS011;5805;51.542;7.230;2024-01-25T09:23:20;27.88;;;6.90;;
11496;SDS011;5805;51.542;7.230;2024-01-25T09:25:46;21.25;;;5.32;;
11496;SDS011;5805;51.542;7.230;2024-01-25T09:28:13;22.25;;;5.65;;
11496;SDS011;5805;51.542;7.230;2024-01-25T09:30:40;21.88;;;6.32;;
11496;SDS011;5805;51.542;7.230;2024-01-25T09:33:06;25.38;;;5.57;;
11496;SDS011;5805;51.542;7.230;2024-01-25T09:35:32;22.30;;;6.22;;
11496;SDS011;5805;51.542;7.230;2024-01-25T09:37:58;22.02;;;6.97;;
11496;SDS011;5805;51.542;7.230;2024-01-25T09:40:23;26.45;;;6.38;;
11496;SDS011;5805;51.542;7.230;2024-01-25T09:42:49;19.88;;;6.40;;
11496;SDS011;5805;51.542;7.230;2024-01-25T09:45:17;18.70;;;5.90;;
11496;SDS011;5805;51.542;7.230;2024-01-25T09:47:45;25.08;;;7.93;;
11496;SDS011;5805;51.542;7.230;2024-01-25T09:50:10;14.50;;;5.53;;
11496;SDS011;5805;51.542;7.230;2024-01-25T09:52:37;20.65;;;6.30;;
11496;SDS011;5805;51.542;7.230;2024-01-25T09:55:04;30.52;;;7.13;;
11496;SDS011;5805;51.542;7.230;2024-01-25T09:57:31;27.50;;;6.85;;
11496;SDS011;5805;51.542;7.230;2024-01-25T10:00:00;28.75;;;7.85;;
11496;SDS011;5805;51.542;7.230;2024-01-25T10:02:26;26.42;;;7.80;;
11496;SDS011;5805;51.542;7.230;2024-01-25T10:04:53;23.65;;;7.45;;
11496;SDS011;5805;51.542;7.230;2024-01-25T10:10:06;24.50;;;7.35;;
11496;SDS011;5805;51.542;7.230;2024-01-25T10:12:32;22.45;;;7.72;;
11496;SDS011;5805;51.542;7.230;2024-01-25T10:14:58;26.05;;;8.43;;
11496;SDS011;5805;51.542;7.230;2024-01-25T10:17:24;25.38;;;8.38;;
11496;SDS011;5805;51.542;7.230;2024-01-25T10:19:50;29.15;;;10.15;;
11496;SDS011;5805;51.542;7.230;2024-01-25T10:22:17;29.30;;;9.90;;
11496;SDS011;5805;51.542;7.230;2024-01-25T10:24:43;31.77;;;10.23;;
11496;SDS011;5805;51.542;7.230;2024-01-25T10:27:10;28.75;;;9.75;;
11496;SDS011;5805;51.542;7.230;2024-01-25T10:29:36;24.98;;;9.57;;
11496;SDS011;5805;51.542;7.230;2024-01-25T10:32:02;39.55;;;11.55;;
11496;SDS011;5805;51.542;7.230;2024-01-25T10:34:28;24.30;;;9.95;;
11496;SDS011;5805;51.542;7.230;2024-01-25T10:36:55;26.25;;;10.35;;
11496;SDS011;5805;51.542;7.230;2024-01-25T10:39:23;31.35;;;10.85;;
11496;SDS011;5805;51.542;7.230;2024-01-25T10:41:49;33.20;;;9.82;;
11496;SDS011;5805;51.542;7.230;2024-01-25T10:44:16;33.42;;;11.80;;
11496;SDS011;5805;51.542;7.230;2024-01-25T10:46:41;33.65;;;10.93;;
11496;SDS011;5805;51.542;7.230;2024-01-25T10:49:08;24.17;;;10.68;;
11496;SDS011;5805;51.542;7.230;2024-01-25T10:51:34;28.35;;;10.52;;
11496;SDS011;5805;51.542;7.230;2024-01-25T10:54:00;28.00;;;11.18;;
11496;SDS011;5805;51.542;7.230;2024-01-25T10:56:28;31.30;;;11.30;;
11496;SDS011;5805;51.542;7.230;2024-01-25T10:58:53;30.95;;;11.80;;
11496;SDS011;5805;51.542;7.230;2024-01-25T11:01:19;28.98;;;11.15;;
11496;SDS011;5805;51.542;7.230;2024-01-25T11:03:45;35.28;;;11.43;;
11496;SDS011;5805;51.542;7.230;2024-01-25T11:06:11;25.15;;;11.13;;
11496;SDS011;5805;51.542;7.230;2024-01-25T11:08:37;35.45;;;12.20;;
11496;SDS011;5805;51.542;7.230;2024-01-25T11:11:05;21.95;;;9.68;;
11496;SDS011;5805;51.542;7.230;2024-01-25T11:13:33;27.70;;;10.90;;
11496;SDS011;5805;51.542;7.230;2024-01-25T11:15:59;29.17;;;11.45;;
11496;SDS011;5805;51.542;7.230;2024-01-25T11:18:46;31.98;;;10.73;;
11496;SDS011;5805;51.542;7.230;2024-01-25T11:21:21;28.95;;;11.20;;
11496;SDS011;5805;51.542;7.230;2024-01-25T11:23:58;32.80;;;11.45;;
11496;SDS011;5805;51.542;7.230;2024-01-25T11:26:25;26.08;;;10.27;;
11496;SDS011;5805;51.542;7.230;2024-01-25T11:28:52;27.52;;;9.88;;
11496;SDS011;5805;51.542;7.230;2024-01-25T11:31:18;26.48;;;10.60;;
11496;SDS011;5805;51.542;7.230;2024-01-25T11:33:44;28.30;;;10.20;;
11496;SDS011;5805;51.542;7.230;2024-01-25T11:36:09;33.13;;;11.75;;
11496;SDS011;5805;51.542;7.230;2024-01-25T11:38:36;34.40;;;11.55;;
11496;SDS011;5805;51.542;7.230;2024-01-25T11:41:01;33.05;;;11.60;;
11496;SDS011;5805;51.542;7.230;2024-01-25T11:43:27;27.60;;;10.85;;
11496;SDS011;5805;51.542;7.230;2024-01-25T11:45:54;29.25;;;10.02;;
11496;SDS011;5805;51.542;7.230;2024-01-25T11:48:20;21.42;;;9.00;;
11496;SDS011;5805;51.542;7.230;2024-01-25T11:50:46;33.67;;;9.75;;
11496;SDS011;5805;51.542;7.230;2024-01-25T11:53:12;22.08;;;9.02;;
11496;SDS011;5805;51.542;7.230;2024-01-25T11:55:38;22.85;;;7.82;;
11496;SDS011;5805;51.542;7.230;2024-01-25T11:58:03;29.95;;;8.75;;
11496;SDS011;5805;51.542;7.230;2024-01-25T12:00:29;24.75;;;8.90;;
11496;SDS011;5805;51.542;7.230;2024-01-25T12:02:57;27.75;;;8.40;;
11496;SDS011;5805;51.542;7.230;2024-01-25T12:05:22;24.40;;;8.68;;
11496;SDS011;5805;51.542;7.230;2024-01-25T12:07:48;27.02;;;8.48;;
11496;SDS011;5805;51.542;7.230;2024-01-25T12:10:15;20.63;;;8.25;;
11496;SDS011;5805;51.542;7.230;2024-01-25T12:12:41;30.33;;;8.73;;
11496;SDS011;5805;51.542;7.230;2024-01-25T12:15:07;26.52;;;8.82;;
11496;SDS011;5805;51.542;7.230;2024-01-25T12:17:34;23.48;;;7.68;;
11496;SDS011;5805;51.542;7.230;2024-01-25T12:20:02;23.90;;;7.70;;
11496;SDS011;5805;51.542;7.230;2024-01-25T12:22:28;22.80;;;7.13;;
11496;SDS011;5805;51.542;7.230;2024-01-25T12:24:54;26.35;;;7.03;;
11496;SDS011;5805;51.542;7.230;2024-01-25T12:27:21;23.88;;;5.63;;
11496;SDS011;5805;51.542;7.230;2024-01-25T12:29:47;23.63;;;5.07;;
11496;SDS011;5805;51.542;7.230;2024-01-25T12:32:12;21.58;;;5.13;;
11496;SDS011;5805;51.542;7.230;2024-01-25T12:34:38;20.25;;;4.85;;
11496;SDS011;5805;51.542;7.230;2024-01-25T12:37:05;23.52;;;5.18;;
11496;SDS011;5805;51.542;7.230;2024-01-25T12:39:31;16.77;;;4.22;;
11496;SDS011;5805;51.542;7.230;2024-01-25T12:41:56;21.48;;;5.60;;
11496;SDS011;5805;51.542;7.230;2024-01-25T12:44:23;19.58;;;4.35;;
11496;SDS011;5805;51.542;7.230;2024-01-25T12:46:50;24.63;;;5.68;;
11496;SDS011;5805;51.542;7.230;2024-01-25T12:49:15;16.92;;;4.18;;
11496;SDS011;5805;51.542;7.230;2024-01-25T12:51:42;22.23;;;5.15;;
11496;SDS011;5805;51.542;7.230;2024-01-25T12:54:09;17.45;;;4.43;;
11496;SDS011;5805;51.542;7.230;2024-01-25T12:56:35;19.45;;;5.22;;
11496;SDS011;5805;51.542;7.230;2024-01-25T12:59:01;20.92;;;4.70;;
11496;SDS011;5805;51.542;7.230;2024-01-25T13:01:26;18.70;;;4.82;;
11496;SDS011;5805;51.542;7.230;2024-01-25T13:03:52;22.25;;;4.68;;
11496;SDS011;5805;51.542;7.230;2024-01-25T13:06:18;21.42;;;5.47;;
11496;SDS011;5805;51.542;7.230;2024-01-25T13:08:43;18.40;;;4.68;;
11496;SDS011;5805;51.542;7.230;2024-01-25T13:11:11;19.13;;;5.00;;
11496;SDS011;5805;51.542;7.230;2024-01-25T13:13:37;18.58;;;5.63;;
11496;SDS011;5805;51.542;7.230;2024-01-25T13:16:03;21.60;;;5.82;;
11496;SDS011;5805;51.542;7.230;2024-01-25T13:18:31;20.17;;;5.50;;
11496;SDS011;5805;51.542;7.230;2024-01-25T13:20:56;22.50;;;5.53;;
11496;SDS011;5805;51.542;7.230;2024-01-25T13:23:22;21.75;;;6.55;;
11496;SDS011;5805;51.542;7.230;2024-01-25T13:25:48;23.85;;;5.53;;
11496;SDS011;5805;51.542;7.230;2024-01-25T13:28:15;27.90;;;6.07;;
11496;SDS011;5805;51.542;7.230;2024-01-25T13:30:40;17.33;;;5.75;;
11496;SDS011;5805;51.542;7.230;2024-01-25T13:33:06;20.15;;;6.20;;
11496;SDS011;5805;51.542;7.230;2024-01-25T13:35:32;24.73;;;5.95;;
11496;SDS011;5805;51.542;7.230;2024-01-25T13:37:57;25.20;;;6.93;;
11496;SDS011;5805;51.542;7.230;2024-01-25T13:40:23;23.73;;;6.03;;
11496;SDS011;5805;51.542;7.230;2024-01-25T13:42:49;21.38;;;5.75;;
11496;SDS011;5805;51.542;7.230;2024-01-25T13:45:16;22.17;;;6.22;;
11496;SDS011;5805;51.542;7.230;2024-01-25T13:47:42;27.98;;;7.13;;
11496;SDS011;5805;51.542;7.230;2024-01-25T13:50:07;23.67;;;6.30;;
11496;SDS011;5805;51.542;7.230;2024-01-25T13:52:33;21.23;;;6.22;;
11496;SDS011;5805;51.542;7.230;2024-01-25T13:54:59;22.77;;;7.05;;
11496;SDS011;5805;51.542;7.230;2024-01-25T13:57:25;24.38;;;7.05;;
11496;SDS011;5805;51.542;7.230;2024-01-25T13:59:50;19.83;;;5.65;;
11496;SDS011;5805;51.542;7.230;2024-01-25T14:02:19;19.67;;;6.13;;
11496;SDS011;5805;51.542;7.230;2024-01-25T14:04:44;22.25;;;5.35;;
11496;SDS011;5805;51.542;7.230;2024-01-25T14:07:10;28.13;;;6.68;;
11496;SDS011;5805;51.542;7.230;2024-01-25T14:09:36;18.27;;;5.95;;
11496;SDS011;5805;51.542;7.230;2024-01-25T14:12:02;26.27;;;6.53;;
11496;SDS011;5805;51.542;7.230;2024-01-25T14:14:28;20.90;;;6.22;;
11496;SDS011;5805;51.542;7.230;2024-01-25T14:16:53;25.25;;;6.45;;
11496;SDS011;5805;51.542;7.230;2024-01-25T14:19:21;23.30;;;6.75;;
11496;SDS011;5805;51.542;7.230;2024-01-25T14:21:46;21.52;;;5.72;;
11496;SDS011;5805;51.542;7.230;2024-01-25T14:24:12;19.63;;;5.85;;
11496;SDS011;5805;51.542;7.230;2024-01-25T14:26:38;22.30;;;6.28;;
11496;SDS011;5805;51.542;7.230;2024-01-25T14:29:04;27.00;;;6.80;;
11496;SDS011;5805;51.542;7.230;2024-01-25T14:31:29;29.05;;;7.78;;
11496;SDS011;5805;51.542;7.230;2024-01-25T14:33:55;22.70;;;6.07;;
11496;SDS011;5805;51.542;7.230;2024-01-25T14:36:22;28.85;;;6.55;;
11496;SDS011;5805;51.542;7.230;2024-01-25T14:38:48;20.27;;;6.70;;
11496;SDS011;5805;51.542;7.230;2024-01-25T14:41:14;28.45;;;6.90;;
11496;SDS011;5805;51.542;7.230;2024-01-25T14:43:40;17.98;;;5.70;;